Capitol Logistics 795


KMIA
Miami International Airport
Miami, Florida, US
SBGR
Guarulhos International Airport
Sao Paulo, , BR

Activity Log

Date Flight Route Aircraft Duration
09/28/2019 CPX795 SKIPS2 SKIPS Y398 JOSES UL304 ETBOD UL304 POVLA UL304 ARVUM UL304 EGONI UL795 ETAXI UZ38 MOXEP MOXE1A B744 9h 35m

Route Details

Aircraft Information
Primary: Boeing 747-400BCF
Backup: Boeing 777-200LRF
Route Data
Distance: 3554nm
Sched. Duration: 8h 15m
Avg. Duration: 9h 35m (+121m)
Times Flown: 1
Recm'd Route: SKIPS2 SKIPS Y398 JOSES UL304 ETBOD UL304 POVLA UL304 ARVUM UL304 EGONI UL795 ETAXI UZ38 MOXEP MOXE1A
Planned Altitude: 33,000ft
Origin Wx: KMIA 271653Z 33010G18KT 300V360 10SM FEW030 SCT140 BKN160 BKN180 19/07 A3017 RMK AO2 SLP214 T01890067
Dest. Wx: SBGR 271700Z 14005KT 9999 -RA OVC020 20/17 Q1016
Notes:

Financial History
Total Freight: 102,233lbs
Average Load: 102,233lbs/flt
Fuel Used: 70,700lbs
Avg. Fuel Used: 70,700lbs/flt
Fuel Expense: $86,961
Avg. Fuel Expense: $86,961
Avg. Fuel Cost: $1.23/lbs
Total Gross Income: $237,181
Pilot Pay: $149
Total Expenses: $25,668
Total Revenue: $122,258
Average Revenue: $237,180.56